createdAt,value
2023-07-10T00:01:02.128Z,101633.69
2023-07-10T00:03:31.930Z,101649.91
2023-07-10T00:05:59.919Z,101659.34
2023-07-10T00:08:27.525Z,101652.06
2023-07-10T00:10:55.007Z,101649.09
2023-07-10T00:13:22.960Z,101642.31
2023-07-10T00:15:52.242Z,101638.47
2023-07-10T00:18:23.863Z,101627.66
2023-07-10T00:20:51.180Z,101628.44
2023-07-10T00:23:19.078Z,101631.72
2023-07-10T00:25:46.376Z,101631.47
2023-07-10T00:28:17.262Z,101642.25
2023-07-10T00:30:46.931Z,101639.06
2023-07-10T00:33:16.720Z,101633.06
2023-07-10T00:35:45.979Z,101636.53
2023-07-10T00:38:19.724Z,101646.78
2023-07-10T00:40:48.328Z,101658.97
2023-07-10T00:43:29.372Z,101661.38
2023-07-10T00:46:10.194Z,101672.47
2023-07-10T00:48:43.766Z,101671.16
2023-07-10T00:51:27.933Z,101678.97
2023-07-10T00:53:57.711Z,101680.94
2023-07-10T00:56:34.681Z,101683.66
2023-07-10T00:59:22.592Z,101700.00
2023-07-10T01:02:20.045Z,101708.00
2023-07-10T01:04:55.412Z,101723.66
2023-07-10T01:07:27.401Z,101727.16
2023-07-10T01:10:01.585Z,101733.88
2023-07-10T01:12:31.680Z,101739.81
2023-07-10T01:14:59.002Z,101734.63
2023-07-10T01:17:29.067Z,101733.81
2023-07-10T01:20:01.077Z,101739.41
2023-07-10T01:22:29.906Z,101742.88
2023-07-10T01:24:57.160Z,101743.34
2023-07-10T01:27:24.758Z,101745.50
2023-07-10T01:30:01.804Z,101750.06
2023-07-10T01:32:30.213Z,101743.34
2023-07-10T01:35:04.727Z,101743.88
2023-07-10T01:37:32.987Z,101742.22
2023-07-10T01:40:00.045Z,101729.00
2023-07-10T01:42:27.092Z,101733.31
2023-07-10T01:44:54.162Z,101729.28
2023-07-10T01:47:21.735Z,101728.34
2023-07-10T01:49:54.118Z,101727.31
2023-07-10T01:52:24.002Z,101709.00
2023-07-10T01:54:54.963Z,101712.31
2023-07-10T01:57:25.061Z,101709.41
2023-07-10T01:59:52.684Z,101709.63
2023-07-10T02:02:19.972Z,101702.34
2023-07-10T02:04:46.969Z,101699.38
2023-07-10T02:07:13.888Z,101698.88
2023-07-10T02:09:40.877Z,101694.31
2023-07-10T02:12:10.561Z,101687.03
2023-07-10T02:14:37.479Z,101687.81
2023-07-10T02:17:05.143Z,101696.72
2023-07-10T02:19:32.251Z,101698.88
2023-07-10T02:21:59.169Z,101695.06
2023-07-10T02:24:26.094Z,101693.13
2023-07-10T02:26:53.108Z,101682.56
2023-07-10T02:29:21.533Z,101688.50
2023-07-10T02:31:51.865Z,101681.47
2023-07-10T02:34:19.050Z,101675.00
2023-07-10T02:36:46.047Z,101673.63
2023-07-10T02:39:13.116Z,101674.13
2023-07-10T02:41:40.089Z,101666.28
2023-07-10T02:44:07.009Z,101658.19
2023-07-10T02:46:35.345Z,101669.00
2023-07-10T02:49:02.323Z,101674.94
2023-07-10T02:51:29.437Z,101667.41
2023-07-10T02:53:56.450Z,101662.56
2023-07-10T02:56:23.421Z,101667.97
2023-07-10T02:58:51.420Z,101677.94
2023-07-10T03:01:18.456Z,101685.75
2023-07-10T03:03:47.964Z,101684.59
2023-07-10T03:06:15.508Z,101680.78
2023-07-10T03:08:42.415Z,101675.06
2023-07-10T03:11:16.435Z,101685.03
2023-07-10T03:13:43.899Z,101688.06
2023-07-10T03:16:14.050Z,101694.28
2023-07-10T03:18:41.842Z,101687.25
2023-07-10T03:21:11.461Z,101691.50
2023-07-10T03:23:38.409Z,101702.56
2023-07-10T03:26:05.961Z,101700.13
2023-07-10T03:28:36.942Z,101700.13
2023-07-10T03:31:04.556Z,101711.47
2023-07-10T03:33:31.556Z,101723.66
2023-07-10T03:35:59.755Z,101712.03
2023-07-10T03:38:28.338Z,101694.19
2023-07-10T03:40:58.136Z,101705.81
2023-07-10T03:43:26.568Z,101706.38
2023-07-10T03:45:56.288Z,101687.75
2023-07-10T03:48:23.870Z,101681.84
2023-07-10T03:50:50.901Z,101678.56
2023-07-10T03:53:17.835Z,101690.94
2023-07-10T03:55:54.970Z,101694.16
2023-07-10T03:58:25.501Z,101696.28
2023-07-10T04:00:52.632Z,101694.41
2023-07-10T04:03:23.718Z,101688.19
2023-07-10T04:05:54.034Z,101680.63
2023-07-10T04:08:22.529Z,101674.13
2023-07-10T04:10:52.787Z,101684.94
2023-07-10T04:13:20.443Z,101690.88
2023-07-10T04:15:58.177Z,101676.00
2023-07-10T04:18:27.663Z,101649.84
2023-07-10T04:20:54.647Z,101669.81
2023-07-10T04:23:21.703Z,101700.06
2023-07-10T04:25:50.903Z,101705.47
2023-07-10T04:28:18.000Z,101720.00
2023-07-10T04:30:46.659Z,101732.94
2023-07-10T04:33:15.171Z,101729.13
2023-07-10T04:35:42.369Z,101729.38
2023-07-10T04:38:09.718Z,101714.50
2023-07-10T04:40:37.180Z,101722.84
2023-07-10T04:43:05.923Z,101734.47
2023-07-10T04:45:32.960Z,101718.78
2023-07-10T04:48:00.002Z,101729.06
2023-07-10T04:50:27.074Z,101715.03
2023-07-10T04:52:54.018Z,101714.69
2023-07-10T04:55:21.075Z,101712.00
2023-07-10T04:57:48.039Z,101701.19
2023-07-10T05:00:18.568Z,101712.81
2023-07-10T05:02:45.658Z,101691.78
2023-07-10T05:05:12.617Z,101689.66
2023-07-10T05:07:39.517Z,101686.19
2023-07-10T05:10:07.257Z,101698.13
2023-07-10T05:12:34.608Z,101712.19
2023-07-10T05:15:01.564Z,101707.59
2023-07-10T05:17:29.837Z,101709.53
2023-07-10T05:19:56.871Z,101721.72
2023-07-10T05:22:23.869Z,101723.59
2023-07-10T05:24:50.841Z,101723.59
2023-07-10T05:27:17.748Z,101728.44
2023-07-10T05:29:44.973Z,101731.94
2023-07-10T05:32:11.988Z,101729.81
2023-07-10T05:34:40.252Z,101733.06
2023-07-10T05:37:07.198Z,101723.88
2023-07-10T05:39:34.132Z,101727.69
2023-07-10T05:42:01.131Z,101733.06
2023-07-10T05:44:28.109Z,101731.44
2023-07-10T05:46:57.198Z,101732.53
2023-07-10T05:49:25.087Z,101723.16
2023-07-10T05:51:53.729Z,101740.41
2023-07-10T05:54:21.083Z,101738.72
2023-07-10T05:56:48.620Z,101745.44
2023-07-10T05:59:16.484Z,101747.34
2023-07-10T06:01:43.487Z,101755.44
2023-07-10T06:04:10.527Z,101755.16
2023-07-10T06:06:37.548Z,101760.63
2023-07-10T06:09:05.776Z,101759.91
2023-07-10T06:11:34.130Z,101762.59
2023-07-10T06:14:01.200Z,101766.41
2023-07-10T06:16:29.141Z,101767.59
2023-07-10T06:18:56.231Z,101766.34
2023-07-10T06:21:23.237Z,101763.69
2023-07-10T06:23:50.363Z,101765.91
2023-07-10T06:26:18.681Z,101782.16
2023-07-10T06:28:45.595Z,101783.00
2023-07-10T06:31:12.999Z,101777.97
2023-07-10T06:33:40.581Z,101775.00
2023-07-10T06:36:08.346Z,101770.69
2023-07-10T06:38:35.905Z,101764.47
2023-07-10T06:41:06.764Z,101757.19
2023-07-10T06:43:35.810Z,101761.28
2023-07-10T06:46:03.080Z,101760.72
2023-07-10T06:48:30.136Z,101762.44
2023-07-10T06:50:57.576Z,101758.47
2023-07-10T06:53:27.766Z,101771.78
2023-07-10T06:55:58.181Z,101782.06
2023-07-10T06:58:25.797Z,101783.97
2023-07-10T07:00:55.292Z,101780.44
2023-07-10T07:03:22.618Z,101785.25
2023-07-10T07:05:49.942Z,101784.59
2023-07-10T07:08:18.729Z,101781.56
2023-07-10T07:10:47.743Z,101787.75
2023-07-10T07:13:15.197Z,101794.81
2023-07-10T07:15:42.402Z,101778.97
2023-07-10T07:18:10.748Z,101779.09
2023-07-10T07:20:39.502Z,101789.78
2023-07-10T07:23:06.421Z,101787.19
2023-07-10T07:25:33.483Z,101795.63
2023-07-10T07:28:00.579Z,101797.28
2023-07-10T07:30:29.166Z,101794.59
2023-07-10T07:32:57.208Z,101796.31
2023-07-10T07:35:25.540Z,101797.16
2023-07-10T07:37:52.479Z,101799.13
2023-07-10T07:40:19.496Z,101795.13
2023-07-10T07:42:48.005Z,101790.28
2023-07-10T07:45:16.529Z,101795.22
2023-07-10T07:47:45.326Z,101796.34
2023-07-10T07:50:12.890Z,101797.25
2023-07-10T07:52:41.254Z,101796.47
2023-07-10T07:55:10.009Z,101804.38
2023-07-10T07:57:39.430Z,101798.72
2023-07-10T08:00:09.231Z,101801.97
2023-07-10T08:02:36.237Z,101800.63
2023-07-10T08:05:04.490Z,101803.66
2023-07-10T08:07:34.285Z,101802.59
2023-07-10T08:10:04.968Z,101805.59
2023-07-10T08:12:31.992Z,101801.53
2023-07-10T08:14:59.240Z,101810.19
2023-07-10T08:17:26.135Z,101818.34
2023-07-10T08:19:53.650Z,101810.25
2023-07-10T08:22:20.567Z,101825.31
2023-07-10T08:24:47.497Z,101811.09
2023-07-10T08:27:15.946Z,101827.38
2023-07-10T08:29:43.040Z,101826.84
2023-07-10T08:32:10.201Z,101826.06
2023-07-10T08:34:39.735Z,101828.53
2023-07-10T08:37:06.993Z,101828.81
2023-07-10T08:39:33.966Z,101826.94
2023-07-10T08:42:17.853Z,101831.59
2023-07-10T08:44:50.501Z,101833.50
2023-07-10T08:47:24.226Z,101839.78
2023-07-10T08:50:01.410Z,101845.47
2023-07-10T08:52:38.436Z,101839.56
2023-07-10T08:55:12.972Z,101833.25
2023-07-10T08:57:49.252Z,101841.16
2023-07-10T09:00:17.902Z,101852.00
2023-07-10T09:02:51.203Z,101841.38
2023-07-10T09:05:24.158Z,101851.44
2023-07-10T09:07:52.168Z,101849.25
2023-07-10T09:10:23.806Z,101840.63
2023-07-10T09:12:54.445Z,101850.03
2023-07-10T09:15:29.751Z,101860.78
2023-07-10T09:18:06.928Z,101856.81
2023-07-10T09:20:37.465Z,101858.97
2023-07-10T09:23:22.434Z,101866.75
2023-07-10T09:25:56.931Z,101870.19
2023-07-10T09:28:25.959Z,101868.13
2023-07-10T09:31:21.295Z,101865.78
2023-07-10T09:33:59.314Z,101874.25
2023-07-10T09:36:27.693Z,101876.94
2023-07-10T09:38:57.966Z,101870.91
2023-07-10T09:41:28.496Z,101860.03
2023-07-10T09:44:12.020Z,101866.31
2023-07-10T09:46:40.479Z,101873.59
2023-07-10T09:49:15.517Z,101865.38
2023-07-10T09:51:57.227Z,101861.19
2023-07-10T09:54:25.492Z,101866.69
2023-07-10T09:56:55.052Z,101861.06
2023-07-10T09:59:27.028Z,101865.28
2023-07-10T10:01:56.654Z,101865.88
2023-07-10T10:04:27.732Z,101871.88
2023-07-10T10:07:03.475Z,101865.19
2023-07-10T10:09:31.498Z,101864.19
2023-07-10T10:12:06.481Z,101868.03
2023-07-10T10:14:45.825Z,101865.84
2023-07-10T10:17:21.748Z,101869.06
2023-07-10T10:19:56.557Z,101873.38
2023-07-10T10:22:33.331Z,101872.66
2023-07-10T10:25:01.090Z,101871.19
2023-07-10T10:27:39.423Z,101877.63
2023-07-10T10:30:27.393Z,101878.03
2023-07-10T10:33:14.297Z,101881.38
2023-07-10T10:35:58.573Z,101879.28
2023-07-10T10:38:41.089Z,101889.91
2023-07-10T10:41:27.613Z,101896.25
2023-07-10T10:44:06.099Z,101889.25
2023-07-10T10:46:53.178Z,101891.13
2023-07-10T10:49:42.229Z,101879.34
2023-07-10T10:52:25.593Z,101887.16
2023-07-10T10:55:17.668Z,101892.38
2023-07-10T10:57:58.580Z,101892.19
2023-07-10T11:00:51.359Z,101886.47
2023-07-10T11:03:28.357Z,101885.16
2023-07-10T11:06:18.024Z,101892.97
2023-07-10T11:08:51.659Z,101898.53
2023-07-10T11:11:27.896Z,101892.28
2023-07-10T11:14:05.205Z,101893.66
2023-07-10T11:16:36.613Z,101889.16
2023-07-10T11:19:05.613Z,101899.41
2023-07-10T11:21:34.973Z,101902.31
2023-07-10T11:24:17.720Z,101902.44
2023-07-10T11:26:52.779Z,101900.38
2023-07-10T11:29:30.100Z,101901.59
2023-07-10T11:32:15.933Z,101901.16
2023-07-10T11:35:21.312Z,101901.91
2023-07-10T11:38:22.775Z,101900.91
2023-07-10T11:40:53.091Z,101907.44
2023-07-10T11:44:13.322Z,101907.75
2023-07-10T11:47:00.864Z,101904.75
2023-07-10T11:49:44.880Z,101896.88
2023-07-10T11:52:28.065Z,101901.63
2023-07-10T11:55:15.292Z,101902.03
2023-07-10T11:57:42.728Z,101901.50
2023-07-10T12:00:27.772Z,101913.63
2023-07-10T12:03:00.788Z,101910.44
2023-07-10T12:05:37.006Z,101909.13
2023-07-10T12:08:13.003Z,101913.25
2023-07-10T12:10:46.619Z,101909.69
2023-07-10T12:13:19.613Z,101917.59
2023-07-10T12:15:48.721Z,101917.09
2023-07-10T12:18:20.653Z,101915.47
2023-07-10T12:20:51.620Z,101914.66
2023-07-10T12:23:19.773Z,101905.41
2023-07-10T12:25:54.413Z,101904.50
2023-07-10T12:28:28.533Z,101909.91
2023-07-10T12:30:59.187Z,101913.63
2023-07-10T12:33:42.337Z,101909.81
2023-07-10T12:36:24.556Z,101909.00
2023-07-10T12:38:53.989Z,101904.94
2023-07-10T12:41:23.492Z,101901.44
2023-07-10T12:43:54.349Z,101911.81
2023-07-10T12:46:25.773Z,101912.97
2023-07-10T12:49:00.210Z,101907.78
2023-07-10T12:51:31.864Z,101911.56
2023-07-10T12:54:01.668Z,101909.41
2023-07-10T12:56:34.875Z,101912.13
2023-07-10T12:59:18.200Z,101906.94
2023-07-10T13:01:52.659Z,101911.00
2023-07-10T13:04:24.866Z,101916.16
2023-07-10T13:07:29.358Z,101914.84
2023-07-10T13:10:01.449Z,101914.25
2023-07-10T13:12:33.439Z,101912.34
2023-07-10T13:15:03.871Z,101916.41
2023-07-10T13:17:37.685Z,101910.13
2023-07-10T13:20:20.822Z,101915.06
2023-07-10T13:22:47.967Z,101920.47
2023-07-10T13:25:15.190Z,101922.63
2023-07-10T13:27:43.580Z,101916.31
2023-07-10T13:30:17.977Z,101907.50
2023-07-10T13:32:45.054Z,101910.66
2023-07-10T13:35:12.387Z,101912.09
2023-07-10T13:37:39.809Z,101916.06
2023-07-10T13:40:12.868Z,101925.13
2023-07-10T13:42:39.919Z,101923.00
2023-07-10T13:45:10.098Z,101916.03
2023-07-10T13:47:37.136Z,101915.25
2023-07-10T13:50:05.117Z,101907.06
2023-07-10T13:52:32.305Z,101911.13
2023-07-10T13:54:59.263Z,101906.81
2023-07-10T13:57:32.965Z,101902.44
2023-07-10T14:00:02.369Z,101913.28
2023-07-10T14:02:36.620Z,101907.78
2023-07-10T14:05:08.450Z,101904.53
2023-07-10T14:07:36.843Z,101905.88
2023-07-10T14:10:05.843Z,101897.84
2023-07-10T14:12:35.805Z,101901.56
2023-07-10T14:15:03.600Z,101889.28
2023-07-10T14:17:34.270Z,101880.28
2023-07-10T14:20:02.427Z,101902.38
2023-07-10T14:22:33.281Z,101900.78
2023-07-10T14:25:00.276Z,101896.22
2023-07-10T14:27:28.784Z,101889.59
2023-07-10T14:29:58.947Z,101884.25
2023-07-10T14:32:28.012Z,101887.59
2023-07-10T14:34:56.803Z,101897.22
2023-07-10T14:37:27.867Z,101888.00
2023-07-10T14:39:55.213Z,101890.84
2023-07-10T14:42:27.281Z,101892.56
2023-07-10T14:44:54.791Z,101890.19
2023-07-10T14:47:32.092Z,101885.13
2023-07-10T14:50:02.203Z,101885.69
2023-07-10T14:52:34.399Z,101884.38
2023-07-10T14:55:05.772Z,101878.66
2023-07-10T14:57:36.153Z,101889.00
2023-07-10T15:00:13.666Z,101886.84
2023-07-10T15:02:40.632Z,101897.19
2023-07-10T15:05:09.356Z,101904.59
2023-07-10T15:07:39.124Z,101897.53
2023-07-10T15:10:25.954Z,101899.84
2023-07-10T15:12:56.415Z,101902.13
2023-07-10T15:15:32.342Z,101903.31
2023-07-10T15:17:59.810Z,101888.78
2023-07-10T15:20:28.654Z,101889.38
2023-07-10T15:22:55.799Z,101895.44
2023-07-10T15:25:26.391Z,101892.44
2023-07-10T15:27:54.358Z,101892.72
2023-07-10T15:30:25.127Z,101896.25
2023-07-10T15:32:52.690Z,101898.69
2023-07-10T15:35:22.684Z,101892.72
2023-07-10T15:37:51.052Z,101894.34
2023-07-10T15:40:22.115Z,101888.94
2023-07-10T15:42:53.711Z,101894.63
2023-07-10T15:45:22.062Z,101894.06
2023-07-10T15:47:57.250Z,101898.13
2023-07-10T15:50:27.006Z,101899.78
2023-07-10T15:52:55.724Z,101899.75
2023-07-10T15:55:28.903Z,101890.84
2023-07-10T15:57:57.289Z,101895.97
2023-07-10T16:00:30.266Z,101892.44
2023-07-10T16:02:57.270Z,101891.63
2023-07-10T16:05:28.619Z,101885.91
2023-07-10T16:07:58.822Z,101888.38
2023-07-10T16:10:27.818Z,101881.84
2023-07-10T16:12:56.851Z,101878.53
2023-07-10T16:15:27.119Z,101878.47
2023-07-10T16:17:57.235Z,101872.47
2023-07-10T16:20:28.122Z,101868.56
2023-07-10T16:23:05.204Z,101860.25
2023-07-10T16:25:32.874Z,101861.41
2023-07-10T16:27:59.776Z,101853.25
2023-07-10T16:30:27.256Z,101857.34
2023-07-10T16:32:54.233Z,101872.38
2023-07-10T16:35:24.357Z,101864.56
2023-07-10T16:37:53.089Z,101862.25
2023-07-10T16:40:25.537Z,101867.53
2023-07-10T16:42:56.835Z,101866.97
2023-07-10T16:45:27.932Z,101872.66
2023-07-10T16:47:55.659Z,101859.75
2023-07-10T16:50:24.750Z,101864.09
2023-07-10T16:52:52.411Z,101861.28
2023-07-10T16:55:26.053Z,101866.19
2023-07-10T16:57:55.497Z,101865.47
2023-07-10T17:00:31.713Z,101858.41
2023-07-10T17:03:01.188Z,101858.72
2023-07-10T17:05:28.328Z,101859.91
2023-07-10T17:07:59.762Z,101860.69
2023-07-10T17:10:29.019Z,101853.41
2023-07-10T17:12:55.985Z,101850.81
2023-07-10T17:15:23.409Z,101847.41
2023-07-10T17:17:50.376Z,101849.47
2023-07-10T17:20:19.461Z,101856.44
2023-07-10T17:22:46.785Z,101858.47
2023-07-10T17:25:17.212Z,101851.28
2023-07-10T17:27:46.505Z,101838.06
2023-07-10T17:30:15.583Z,101847.38
2023-07-10T17:32:43.370Z,101839.31
2023-07-10T17:35:19.386Z,101841.06
2023-07-10T17:37:50.284Z,101842.25
2023-07-10T17:40:18.171Z,101841.97
2023-07-10T17:42:48.453Z,101842.31
2023-07-10T17:45:19.590Z,101838.53
2023-07-10T17:47:47.818Z,101835.31
2023-07-10T17:50:16.788Z,101841.06
2023-07-10T17:52:47.116Z,101838.63
2023-07-10T17:55:19.816Z,101838.13
2023-07-10T17:57:50.174Z,101830.81
2023-07-10T18:00:19.580Z,101832.19
2023-07-10T18:02:47.681Z,101838.75
2023-07-10T18:05:17.057Z,101836.34
2023-07-10T18:07:44.161Z,101832.50
2023-07-10T18:10:11.898Z,101835.25
2023-07-10T18:12:39.823Z,101837.19
2023-07-10T18:15:15.404Z,101827.44
2023-07-10T18:17:44.613Z,101829.91
2023-07-10T18:20:12.903Z,101831.28
2023-07-10T18:22:42.477Z,101840.53
2023-07-10T18:25:17.696Z,101848.16
2023-07-10T18:27:46.634Z,101844.91
2023-07-10T18:30:17.015Z,101853.06
2023-07-10T18:32:44.380Z,101848.19
2023-07-10T18:35:16.429Z,101851.72
2023-07-10T18:37:43.456Z,101847.38
2023-07-10T18:40:12.516Z,101851.44
2023-07-10T18:42:39.817Z,101846.03
2023-07-10T18:45:17.459Z,101842.22
2023-07-10T18:47:44.494Z,101839.53
2023-07-10T18:50:15.972Z,101838.69
2023-07-10T18:52:43.836Z,101842.22
2023-07-10T18:55:16.792Z,101838.97
2023-07-10T18:57:43.914Z,101846.59
2023-07-10T19:00:20.660Z,101838.44
2023-07-10T19:02:47.838Z,101838.19
2023-07-10T19:05:15.474Z,101832.47
2023-07-10T19:07:42.792Z,101833.84
2023-07-10T19:10:16.814Z,101834.38
2023-07-10T19:12:43.841Z,101827.06
2023-07-10T19:15:12.067Z,101828.94
2023-07-10T19:17:42.352Z,101828.94
2023-07-10T19:20:20.145Z,101823.53
2023-07-10T19:22:47.948Z,101827.03
2023-07-10T19:25:16.383Z,101827.59
2023-07-10T19:27:43.422Z,101830.84
2023-07-10T19:30:17.752Z,101834.34
2023-07-10T19:32:46.386Z,101840.03
2023-07-10T19:35:18.168Z,101846.03
2023-07-10T19:37:45.495Z,101840.31
2023-07-10T19:40:21.120Z,101845.47
2023-07-10T19:42:48.689Z,101839.22
2023-07-10T19:45:16.463Z,101842.19
2023-07-10T19:47:45.241Z,101838.94
2023-07-10T19:50:18.557Z,101843.28
2023-07-10T19:52:45.647Z,101845.44
2023-07-10T19:55:14.338Z,101834.31
2023-07-10T19:57:41.846Z,101839.47
2023-07-10T20:00:20.103Z,101845.97
2023-07-10T20:02:50.418Z,101845.16
2023-07-10T20:05:17.504Z,101848.13
2023-07-10T20:07:44.804Z,101840.53
2023-07-10T20:10:17.256Z,101840.78
2023-07-10T20:12:44.414Z,101839.16
2023-07-10T20:15:15.653Z,101833.97
2023-07-10T20:17:46.497Z,101820.69
2023-07-10T20:20:21.889Z,101825.28
2023-07-10T20:22:49.831Z,101825.56
2023-07-10T20:25:16.937Z,101826.88
2023-07-10T20:27:44.592Z,101828.50
2023-07-10T20:30:17.657Z,101838.78
2023-07-10T20:32:46.201Z,101830.63
2023-07-10T20:35:16.561Z,101840.88
2023-07-10T20:37:46.331Z,101841.94
2023-07-10T20:40:15.183Z,101837.59
2023-07-10T20:42:42.269Z,101832.63
2023-07-10T20:45:14.860Z,101831.25
2023-07-10T20:47:49.272Z,101826.66
2023-07-10T20:50:17.834Z,101831.25
2023-07-10T20:52:48.611Z,101825.84
2023-07-10T20:55:15.823Z,101825.56
2023-07-10T20:57:42.996Z,101822.31
2023-07-10T21:00:16.440Z,101817.94
2023-07-10T21:02:43.574Z,101822.53
2023-07-10T21:05:10.714Z,101815.78
2023-07-10T21:07:37.936Z,101820.63
2023-07-10T21:10:11.288Z,101812.22
2023-07-10T21:12:38.325Z,101812.72
2023-07-10T21:15:06.831Z,101810.84
2023-07-10T21:17:34.930Z,101810.84
2023-07-10T21:20:02.789Z,101810.84
2023-07-10T21:22:29.738Z,101798.94
2023-07-10T21:24:56.645Z,101804.03
2023-07-10T21:27:28.871Z,101798.34
2023-07-10T21:30:01.390Z,101805.34
2023-07-10T21:32:29.978Z,101799.66
2023-07-10T21:34:57.807Z,101797.16
2023-07-10T21:37:24.770Z,101789.03
2023-07-10T21:39:52.224Z,101787.88
2023-07-10T21:42:22.308Z,101787.81
2023-07-10T21:44:53.113Z,101784.00
2023-07-10T21:47:20.213Z,101782.91
2023-07-10T21:49:47.151Z,101790.97
2023-07-10T21:52:14.157Z,101789.56
2023-07-10T21:54:41.273Z,101786.59
2023-07-10T21:57:18.699Z,101795.47
2023-07-10T21:59:45.794Z,101797.31
2023-07-10T22:02:14.068Z,101801.06
2023-07-10T22:04:41.006Z,101803.78
2023-07-10T22:07:07.920Z,101791.84
2023-07-10T22:09:34.914Z,101790.44
2023-07-10T22:12:01.967Z,101793.91
2023-07-10T22:14:28.880Z,101787.38
2023-07-10T22:17:09.892Z,101784.13
2023-07-10T22:19:43.326Z,101782.97
2023-07-10T22:22:11.926Z,101787.25
2023-07-10T22:24:38.898Z,101784.00
2023-07-10T22:27:10.574Z,101784.81
2023-07-10T22:29:39.241Z,101780.72
2023-07-10T22:32:09.039Z,101775.84
2023-07-10T22:34:35.987Z,101782.81
2023-07-10T22:37:04.928Z,101784.38
2023-07-10T22:39:31.878Z,101783.28
2023-07-10T22:41:58.953Z,101786.47
2023-07-10T22:44:27.184Z,101781.84
2023-07-10T22:46:54.181Z,101785.31
2023-07-10T22:49:21.129Z,101779.00
2023-07-10T22:51:48.057Z,101780.38
2023-07-10T22:54:16.302Z,101779.22
2023-07-10T22:56:44.726Z,101777.28
2023-07-10T22:59:17.297Z,101768.88
2023-07-10T23:01:44.688Z,101776.41
2023-07-10T23:04:12.581Z,101764.53
2023-07-10T23:06:39.707Z,101757.50
2023-07-10T23:09:09.009Z,101760.72
2023-07-10T23:11:37.336Z,101760.63
2023-07-10T23:14:04.430Z,101764.91
2023-07-10T23:16:31.490Z,101764.56
2023-07-10T23:19:00.564Z,101765.59
2023-07-10T23:21:29.373Z,101775.50
2023-07-10T23:23:56.570Z,101772.72
2023-07-10T23:26:25.542Z,101779.16
2023-07-10T23:28:54.074Z,101775.56
2023-07-10T23:31:25.364Z,101780.59
2023-07-10T23:33:53.241Z,101777.91
2023-07-10T23:36:22.631Z,101781.44
2023-07-10T23:38:50.122Z,101772.97
2023-07-10T23:41:17.310Z,101779.34
2023-07-10T23:43:45.470Z,101784.09
2023-07-10T23:46:13.950Z,101772.13
2023-07-10T23:48:43.391Z,101776.72
2023-07-10T23:51:11.310Z,101773.44
2023-07-10T23:53:38.512Z,101769.38
2023-07-10T23:56:06.181Z,101765.63
2023-07-10T23:58:36.499Z,101761.84
